• Join FlightAware (Why Join?)
  • Login
  • US Flag 
03:52PM EDT


 

Airport Tracker/Info


-or-


 

Live Flight TrackerFlight Track Log ✈ VH-SLP ✈ 03-May-2013 ✈ YTRE / TRO - YTGM / XTG

Flight Track Log - Related Links

Times and Time Zones

All times are in EDT time to prevent confusion due to time zone crossing. See the VH-SLP flight status page for this flight to view local times or setup timezone preferences in your user account.

Time Position Orientation Groundspeed Altitude Reporting Facility
EDT Latitude Longitude Course Direction KTS MPH feet Rate Location/Type
05:37PM -31.8583 152.4406 322° Northwest 8,000  Level Aus ATC (Calculated)
05:38PM -31.8583 152.4406 322° Northwest 8,000 -840 Level Aus ATC (Calculated)
05:40PM -31.8344 152.3878 298° West  Level FlightAware Approximate
05:40PM -31.8271 152.3717 North 8,000  Level Aus ATC (Calculated)
05:41PM -31.7884 152.3764 298° West 116 133 5,100 -1,740 Descending Aus ATC (RADAR)
05:42PM -31.7809 152.3550 292° West 117 135 5,500 720 Climbing Aus ATC (RADAR)
05:42PM -31.7780 152.3453 289° West 119 137 5,700 600 Climbing Aus ATC (RADAR)
05:42PM -31.7697 152.3244 295° West 119 137 6,000 660 Climbing Aus ATC (RADAR)
05:43PM -31.7567 152.2892 293° West 123 142 6,700 720 Climbing Aus ATC (RADAR)
05:44PM -31.7495 152.2682 292° West 117 135 7,100 600 Climbing Aus ATC (RADAR)
05:45PM -31.7367 152.2340 294° West 120 138 7,600 480 Climbing Aus ATC (RADAR)
05:45PM -31.7331 152.2253 296° West 118 136 7,700 480 Climbing Aus ATC (RADAR)
05:46PM -31.7253 152.2039 293° West 119 137 8,000 120 Climbing Aus ATC (RADAR)
05:47PM -31.7038 152.1365 291° West 154 177 8,000  Level Aus ATC (RADAR)
05:47PM -31.6995 152.1247 293° West 154 177 8,000  Level Aus ATC (RADAR)
05:48PM -31.6903 152.0968 291° West 155 178 8,000 60 Level Aus ATC (RADAR)
05:49PM -31.6735 152.0485 292° West 156 180 8,100  Climbing Aus ATC (RADAR)
05:50PM -31.6620 152.0162 293° West 158 182 8,000 -120 Descending Aus ATC (RADAR)
05:51PM -31.6467 151.9726 292° West 155 178 8,000  Level Aus ATC (RADAR)
05:52PM -31.6256 151.9130 293° West 155 178 8,100 120 Climbing Aus ATC (RADAR)
05:52PM -31.6212 151.9010 294° West 156 180 8,200  Climbing Aus ATC (RADAR)
05:53PM -31.6114 151.8733 292° West 155 178 8,100 -180 Descending Aus ATC (RADAR)
05:54PM -31.5939 151.8263 294° West 153 176 8,000  Descending Aus ATC (RADAR)
05:54PM -31.5819 151.8002 298° West 152 175 8,100 120 Climbing Aus ATC (RADAR)
05:55PM -31.5612 151.7550 298° West 154 177 8,200 -120 Climbing Aus ATC (RADAR)
05:56PM -31.5496 151.7282 297° West 157 181 8,000 -120 Descending Aus ATC (RADAR)
05:57PM -31.5271 151.6762 297° West 151 174 8,000  Level Aus ATC (RADAR)
05:57PM -31.5213 151.6656 303° West 151 174 8,000 240 Level Aus ATC (RADAR)
05:58PM -31.5068 151.6414 305° West 152 175 8,200  Climbing Aus ATC (RADAR)
05:59PM -31.4811 151.6000 306° West 156 180 8,000 -180 Descending Aus ATC (RADAR)
05:59PM -31.4660 151.5743 305° West 160 184 8,000  Level Aus ATC (RADAR)
06:00PM -31.4495 151.5455 304° West 157 181 8,000  Level Aus ATC (RADAR)
06:01PM -31.4417 151.5308 302° West 156 180 8,000  Level Aus ATC (RADAR)
06:02PM -31.4067 151.4603 300° West 155 178 8,000  Level Aus ATC (RADAR)
06:03PM -31.3904 151.4226 297° West 154 177 8,000  Level Aus ATC (RADAR)
06:04PM -31.3671 151.3685 297° West 151 174 8,000 120 Level Aus ATC (RADAR)
06:05PM -31.3549 151.3423 299° West 154 177 8,200 60 Climbing Aus ATC (RADAR)
06:06PM -31.3405 151.3126 300° West 154 177 8,100 -180 Descending Aus ATC (RADAR)
06:06PM -31.3218 151.2742 300° West 159 183 8,000 -60 Descending Aus ATC (RADAR)
06:07PM -31.2886 151.2123 302° West 156 180 8,000  Level Aus ATC (RADAR)
06:08PM -31.2706 151.1794 303° West 157 181 8,000  Level Aus ATC (RADAR)
06:09PM -31.2467 151.1353 302° West 158 182 8,000  Level Aus ATC (RADAR)
06:10PM -31.2329 151.1096 302° West 158 182 8,000  Level Aus ATC (RADAR)
06:11PM -31.2131 151.0729 302° West 157 181 8,000  Level Aus ATC (RADAR)
06:11PM -31.1992 151.0473 302° West 157 181 8,000  Level Aus ATC (RADAR)
06:13PM -31.1563 150.9667 302° West 157 181 8,000  Level Aus ATC (RADAR)
06:13PM -31.1501 150.9558 304° West 157 181 8,000  Level Aus ATC (RADAR)
06:14PM -31.1325 150.9231 302° West 156 180 8,000  Level Aus ATC (RADAR)
06:15PM -31.1180 150.8981 304° West 156 180 8,000  Level Aus ATC (RADAR)
06:16PM -31.0936 150.8604 307° West 156 180 8,000  Level Aus ATC (RADAR)
06:16PM -31.0840 150.8471 310° West 157 181 8,000  Level Aus ATC (RADAR)
06:18PM -31.0557 150.7524 289° West 154 177 8,000  Level Aus ATC (RADAR)
06:18PM -31.0507 150.7321 286° West 154 177 8,000  Level Aus ATC (RADAR)
06:19PM -31.0438 150.7036 286° West 155 178 8,000  Level Aus ATC (RADAR)
06:20PM -31.0323 150.6541 285° West 156 180 8,000  Level Aus ATC (RADAR)
06:20PM -31.0267 150.6291 285° West 157 181 8,000  Level Aus ATC (RADAR)
06:21PM -31.0185 150.5920 285° West 156 180 8,000  Level Aus ATC (RADAR)
06:22PM -31.0073 150.5430 285° West 154 177 8,100  Climbing Aus ATC (RADAR)
06:23PM -31.0002 150.5055 282° West 155 178 8,000 -120 Descending Aus ATC (RADAR)
06:23PM -30.9947 150.4768 283° West 154 177 8,000  Level Aus ATC (RADAR)
06:25PM -30.9852 150.4188 281° West 154 177 8,100 60 Climbing Aus ATC (RADAR)
06:25PM -30.9830 150.4067 282° West 153 176 8,100 -120 Level Aus ATC (RADAR)
06:25PM -30.9783 150.3777 281° West 154 177 8,000 -120 Descending Aus ATC (RADAR)
06:26PM -30.9701 150.3372 283° West 153 176 8,000  Level Aus ATC (RADAR)
06:27PM -30.9609 150.2836 281° West 154 177 8,000  Level Aus ATC (RADAR)
06:28PM -30.9555 150.2553 283° West 153 176 8,000  Level Aus ATC (RADAR)
06:28PM -30.9530 150.2432 284° West 152 175 8,000  Level Aus ATC (RADAR)
06:29PM -30.9448 150.2152 289° West 155 178 8,000  Level Aus ATC (RADAR)
06:30PM -30.9290 150.1724 293° West 155 178 8,000  Level Aus ATC (RADAR)
06:30PM -30.9174 150.1460 297° West 154 177 8,000  Level Aus ATC (RADAR)
06:31PM -30.9016 150.1079 296° West 155 178 8,000  Level Aus ATC (RADAR)
06:31PM -30.8970 150.0964 295° West 154 177 8,000  Level Aus ATC (RADAR)
06:32PM -30.8750 150.0474 298° West 155 178 8,000  Level Aus ATC (RADAR)
06:33PM -30.8642 150.0204 295° West 155 178 8,000  Level Aus ATC (RADAR)
06:33PM -30.8593 150.0091 297° West 155 178 8,000 120 Level Aus ATC (RADAR)
06:34PM -30.8474 149.9827 298° West 156 180 8,100  Climbing Aus ATC (RADAR)
06:35PM -30.8293 149.9409 297° West 155 178 8,000 -120 Descending Aus ATC (RADAR)
06:35PM -30.8181 149.9143 296° West 155 178 8,000  Level Aus ATC (RADAR)
06:36PM -30.8003 149.8724 296° West 156 180 8,000 60 Level Aus ATC (RADAR)
06:37PM -30.7890 149.8457 296° West 156 180 8,100  Climbing Aus ATC (RADAR)
06:38PM -30.7636 149.7892 298° West 157 181 8,000 -120 Descending Aus ATC (RADAR)
06:38PM -30.7587 149.7776 296° West 157 181 8,000  Level Aus ATC (RADAR)
06:39PM -30.7470 149.7510 297° West 157 181 8,000  Level Aus ATC (RADAR)
06:40PM -30.7284 149.7092 297° West 156 180 8,000 60 Level Aus ATC (RADAR)
06:40PM -30.7150 149.6834 301° West 157 181 8,100  Climbing Aus ATC (RADAR)
06:41PM -30.6946 149.6424 300° West 158 182 8,000 -120 Descending Aus ATC (RADAR)
06:42PM -30.6934 149.6291 276° West 158 182 8,000  Level Aus ATC (RADAR)
06:43PM -30.6721 149.5888 302° West 157 181 8,000 60 Level Aus ATC (RADAR)
06:43PM -30.6604 149.5622 297° West 157 181 8,100 120 Climbing Aus ATC (RADAR)
06:43PM -30.6551 149.5509 299° West 157 181 8,100 -120 Level Aus ATC (RADAR)
06:44PM -30.6433 149.5243 297° West 157 181 8,000 -120 Descending Aus ATC (RADAR)
06:45PM -30.6227 149.4788 298° West 157 181 8,000  Level Aus ATC (RADAR)
06:46PM -30.6116 149.4519 296° West 157 181 8,000 120 Level Aus ATC (RADAR)
06:46PM -30.5958 149.4089 293° West 156 180 8,200  Climbing Aus ATC (RADAR)
06:47PM -30.5835 149.3826 298° West 156 180 8,000 -120 Descending Aus ATC (RADAR)
06:48PM -30.5576 149.3220 296° West 155 178 8,000  Level Aus ATC (RADAR)
06:49PM -30.5533 149.3102 293° West 156 180 8,000 120 Level Aus ATC (RADAR)
06:49PM -30.5427 149.2832 295° West 156 180 8,100  Climbing Aus ATC (RADAR)
06:50PM -30.5237 149.2375 296° West 156 180 8,000 -120 Descending Aus ATC (RADAR)
06:51PM -30.5139 149.2104 293° West 155 178 8,000  Level Aus ATC (RADAR)
06:52PM -30.4956 149.1691 297° West 155 178 8,000  Level Aus ATC (RADAR)
06:53PM -30.4801 149.1261 293° West 156 180 8,100  Climbing Aus ATC (RADAR)
06:54PM -30.4584 149.0721 295° West 157 181 8,000 -120 Descending Aus ATC (RADAR)
06:54PM -30.4531 149.0610 299° West 157 181 8,000  Level Aus ATC (RADAR)
06:55PM -30.4336 149.0149 296° West 158 182 8,000 60 Level Aus ATC (RADAR)
06:56PM -30.4226 148.9878 295° West 158 182 8,100  Climbing Aus ATC (RADAR)
06:57PM -30.4039 148.9415 295° West 157 181 8,000 -120 Descending Aus ATC (RADAR)
06:57PM -30.3945 148.9132 291° West 159 183 8,000  Level Aus ATC (RADAR)
06:59PM -30.3629 148.8452 298° West 158 182 8,100  Climbing Aus ATC (RADAR)
06:59PM -30.3574 148.8338 299° West 159 183 8,100 -120 Level Aus ATC (RADAR)
06:59PM -30.3442 148.8078 301° West 159 183 8,000 -120 Descending Aus ATC (RADAR)
07:00PM -30.3219 148.7631 300° West 159 183 8,000  Level Aus ATC (RADAR)
07:01PM -30.3081 148.7375 302° West 159 183 8,000 60 Level Aus ATC (RADAR)
07:02PM -30.2859 148.6925 300° West 159 183 8,100 -480 Climbing Aus ATC (RADAR)
07:07PM -30.1981 148.4989 304° West 200 -540 Descending Aus ATC (Calculated)
07:09PM -30.1236 148.3348 298° West  Level FlightAware Approximate
07:09PM -30.1198 148.3669 298° West 199 229 4,500  Level Aus ATC (RADAR)
07:09PM -30.1167 148.3537 285° West 178 205 4,300 -840 Descending Aus ATC (RADAR)
07:10PM -30.1060 148.3244 293° West 171 197 3,800 -960 Descending Aus ATC (RADAR)
07:10PM -30.1017 148.3120 292° West 170 196 3,500 -1,200 Descending Aus ATC (RADAR)
07:12PM -30.0529 148.1886 295° West  Level FlightAware Approximate
07:19PM -29.7885 147.5659 296° West  Level FlightAware Approximate
07:20PM -29.7503 147.4773 296° West  Level FlightAware Approximate
07:21PM -29.7120 147.3888 296° West  Level FlightAware Approximate
07:22PM -29.6737 147.3003 296° West  Level FlightAware Approximate
07:23PM -29.6353 147.2119 297° West  Level FlightAware Approximate
07:24PM -29.5968 147.1236 297° West  Level FlightAware Approximate
07:25PM -29.5583 147.0354 297° West  Level FlightAware Approximate
07:26PM -29.5197 146.9472 297° West  Level FlightAware Approximate
07:27PM -29.4811 146.8591 297° West  Level FlightAware Approximate
07:28PM -29.4424 146.7711 297° West  Level FlightAware Approximate
07:29PM -29.4037 146.6831 297° West  Level FlightAware Approximate
07:30PM -29.3649 146.5952 297° West  Level FlightAware Approximate
07:31PM -29.3260 146.5073 297° West  Level FlightAware Approximate
07:32PM -29.2871 146.4196 297° West  Level FlightAware Approximate
07:33PM -29.2481 146.3318 297° West  Level FlightAware Approximate
07:34PM -29.2090 146.2442 297° West  Level FlightAware Approximate
07:35PM -29.1700 146.1566 297° West  Level FlightAware Approximate
07:36PM -29.1308 146.0691 297° West  Level FlightAware Approximate
07:37PM -29.0916 145.9817 297° West  Level FlightAware Approximate
07:38PM -29.0523 145.8943 297° West  Level FlightAware Approximate
07:39PM -29.0130 145.8070 297° West  Level FlightAware Approximate
07:40PM -28.9714 145.7211 300° West  Level FlightAware Approximate
07:41PM -28.9287 145.6360 300° West  Level FlightAware Approximate
07:42PM -28.8859 145.5510 300° West  Level FlightAware Approximate
07:43PM -28.8431 145.4660 300° West  Level FlightAware Approximate
07:44PM -28.8002 145.3811 300° West  Level FlightAware Approximate
07:45PM -28.7572 145.2962 300° West  Level FlightAware Approximate
07:46PM -28.7143 145.2115 300° West  Level FlightAware Approximate
07:47PM -28.6712 145.1268 300° West  Level FlightAware Approximate
07:48PM -28.6281 145.0421 300° West  Level FlightAware Approximate
07:49PM -28.5850 144.9576 300° West  Level FlightAware Approximate
07:50PM -28.5418 144.8731 300° West  Level FlightAware Approximate
07:51PM -28.4985 144.7887 300° West  Level FlightAware Approximate
07:52PM -28.4552 144.7043 300° West  Level FlightAware Approximate
07:53PM -28.4118 144.6200 300° West  Level FlightAware Approximate
07:54PM -28.3684 144.5358 300° West  Level FlightAware Approximate
07:55PM -28.3465 144.4933 300° West  Level FlightAware Approximate
07:56PM -28.3246 144.4509 300° West  Level FlightAware Approximate
07:57PM -28.3027 144.4085 300° West  Level FlightAware Approximate
07:58PM -28.2807 144.3661 300° West  Level FlightAware Approximate
07:59PM -28.2588 144.3238 300° West  Level FlightAware Approximate
08:00PM -28.2368 144.2814 300° West  Level FlightAware Approximate
08:01PM -28.2148 144.2391 301° West  Level FlightAware Approximate
08:02PM -28.1928 144.1967 301° West  Level FlightAware Approximate
08:03PM -28.1708 144.1544 301° West  Level FlightAware Approximate
08:04PM -28.1488 144.1122 301° West  Level FlightAware Approximate
08:05PM -28.1267 144.0699 301° West  Level FlightAware Approximate
08:06PM -28.1047 144.0276 301° West  Level FlightAware Approximate
08:07PM -28.0826 143.9854 301° West  Level FlightAware Approximate
08:08PM -28.0605 143.9432 301° West  Level FlightAware Approximate
08:09PM -28.0384 143.9010 301° West  Level FlightAware Approximate
08:10PM -28.0163 143.8588 301° West  Level FlightAware Approximate
08:11PM -27.9942 143.8167 301° West  Level FlightAware Approximate
08:12PM -27.9864 143.8109 333° Northwest  Level FlightAware Approximate
08:13PM -27.9864 143.8108 333° Northwest  Level Estimated
08:14PM -27.9864 143.8108 333° Northwest  Level Estimated
08:15PM -27.9864 143.8108 333° Northwest  Level Estimated
08:16PM -27.9864 143.8108 333° Northwest  Level Estimated
08:17PM -27.9864 143.8108 333° Northwest  Level Estimated
08:18PM -27.9864 143.8108 333° Northwest  Level Estimated
08:19PM -27.9864 143.8108 333° Northwest  Level Estimated
08:20PM -27.9864 143.8108 333° Northwest  Level Estimated
08:21PM -27.9864 143.8108 333° Northwest  Level Estimated
08:22PM -27.9864 143.8108 333° Northwest  Level Estimated
08:23PM -27.9864 143.8108 333° Northwest  Level Estimated
08:24PM -27.9864 143.8108 333° Northwest  Level Estimated
08:25PM -27.9864 143.8108 333° Northwest  Level Estimated
08:26PM -27.9864 143.8108 333° Northwest  Level Estimated
08:27PM -27.9864 143.8108 333° Northwest  Level Estimated
08:28PM -27.9864 143.8108 333° Northwest  Level Estimated
08:29PM -27.9864 143.8108 333° Northwest  Level Estimated
08:30PM -27.9864 143.8108 333° Northwest  Level Estimated
08:31PM -27.9864 143.8108 333° Northwest  Level Estimated
08:32PM -27.9864 143.8108 333° Northwest  Level Estimated
08:33PM -27.9864 143.8108 333° Northwest  Level Estimated
08:34PM -27.9864 143.8108 333° Northwest  Level Estimated
08:35PM -27.9864 143.8108 333° Northwest  Level Estimated
08:36PM -27.9864 143.8108 333° Northwest  Level Estimated
08:37PM -27.9864 143.8108 333° Northwest  Level Estimated
08:38PM -27.9864 143.8108 333° Northwest  Level Estimated
08:39PM -27.9864 143.8108 333° Northwest  Level Estimated
08:40PM -27.9864 143.8108 333° Northwest  Level Estimated
08:41PM -27.9864 143.8108 333° Northwest  Level Estimated
08:42PM -27.9864 143.8108 333° Northwest  Level Estimated
08:43PM -27.9864 143.8108 333° Northwest  Level Estimated
08:44PM -27.9864 143.8108 333° Northwest  Level Estimated
08:45PM -27.9864 143.8108 333° Northwest  Level Estimated
08:46PM -27.9864 143.8108 333° Northwest  Level Estimated
08:47PM -27.9864 143.8108 333° Northwest  Level Estimated
08:48PM -27.9864 143.8108 333° Northwest  Level Estimated
08:49PM -27.9864 143.8108 333° Northwest  Level Estimated
08:50PM -27.9864 143.8108 333° Northwest  Level Estimated
08:51PM -27.9864 143.8108 333° Northwest  Level Estimated
08:52PM -27.9864 143.8108 333° Northwest  Level Estimated
08:53PM -27.9864 143.8108 333° Northwest  Level Estimated
08:54PM -27.9864 143.8108 333° Northwest  Level Estimated
08:55PM -27.9864 143.8108 333° Northwest  Level Estimated
08:56PM -27.9864 143.8108 333° Northwest  Level Estimated
08:57PM -27.9864 143.8108 333° Northwest  Level Estimated
08:58PM -27.9864 143.8108 333° Northwest  Level Estimated
08:59PM -27.9864 143.8108 333° Northwest  Level Estimated
09:00PM -27.9864 143.8108 333° Northwest  Level Estimated
09:01PM -27.9864 143.8108 333° Northwest  Level Estimated
09:02PM -27.9864 143.8108 333° Northwest  Level Estimated
09:03PM -27.9864 143.8108 333° Northwest  Level Estimated
09:04PM -27.9864 143.8108 333° Northwest  Level Estimated
09:05PM -27.9864 143.8108 333° Northwest  Level Estimated
09:06PM -27.9864 143.8108 333° Northwest  Level Estimated
09:07PM -27.9864 143.8108 333° Northwest  Level Estimated
09:08PM -27.9864 143.8108 333° Northwest  Level Estimated
09:09PM -27.9864 143.8108 333° Northwest  Level Estimated
09:10PM -27.9864 143.8108 333° Northwest  Level Estimated
09:11PM -27.9864 143.8108 333° Northwest  Level Estimated
09:12PM -27.9864 143.8108 333° Northwest  Level Estimated
09:13PM -27.9864 143.8108 333° Northwest  Level Estimated
09:14PM -27.9864 143.8108 333° Northwest  Level Estimated
09:15PM -27.9864 143.8108 333° Northwest  Level Estimated
09:16PM -27.9864 143.8108 333° Northwest  Level Estimated
09:17PM -27.9864 143.8108 333° Northwest  Level Estimated
09:18PM -27.9864 143.8108 333° Northwest  Level Estimated
09:19PM -27.9864 143.8108 333° Northwest  Level Estimated
09:20PM -27.9864 143.8108 333° Northwest  Level Estimated
09:21PM -27.9864 143.8108 333° Northwest  Level Estimated
09:22PM -27.9864 143.8108 333° Northwest  Level Estimated
09:23PM -27.9864 143.8108 333° Northwest  Level Estimated
09:24PM -27.9864 143.8108 333° Northwest  Level Estimated
09:25PM -27.9864 143.8108 333° Northwest  Level Estimated
09:26PM -27.9864 143.8108 333° Northwest  Level Estimated
09:27PM -27.9864 143.8108 333° Northwest  Level Estimated
09:28PM -27.9864 143.8108 333° Northwest  Level Estimated
09:29PM -27.9864 143.8108 333° Northwest  Level Estimated
09:30PM -27.9864 143.8108 333° Northwest  Level Estimated
09:31PM -27.9864 143.8108 333° Northwest  Level Estimated
09:32PM -27.9864 143.8108 333° Northwest  Level Estimated
09:33PM -27.9864 143.8108 333° Northwest  Level Estimated
09:34PM -27.9864 143.8108 333° Northwest  Level Estimated
09:35PM -27.9864 143.8108 333° Northwest  Level Estimated
09:36PM -27.9864 143.8108 333° Northwest  Level Estimated
09:37PM -27.9864 143.8108 333° Northwest  Level Estimated
09:38PM -27.9864 143.8108 333° Northwest  Level Estimated
09:39PM -27.9864 143.8108 333° Northwest  Level Estimated
09:40PM -27.9864 143.8108 333° Northwest  Level Estimated
09:41PM -27.9864 143.8108 333° Northwest  Level Estimated
09:42PM -27.9864 143.8108 333° Northwest  Level Estimated